Otagawa — JD3046 — position and weather

sailwx.info

Track history (hours):
 
Tides and Currents Weather Stations Pressure Air Temp Water Temp Dewpoint Dewpoint Depression Visibility Wind Speed Wind Dir Waves Ship Positions

Otagawa

Last reported at 2014-Jul-28 23:29 UTC. Time now 2014-Jul-29 00:38 UTC.
Position N 35°02' E 138°30'.

Length 70 m; draft 4.6 m.

Type: Ship. MMSI: 431001328.

Date/timePositionNaut miles runAvg speedWind from/ knotsBaromVisibWave heightAir tempDewpointWater temp
2014-Jul-28 23:29N 35°02' E 138°30'0 0.0
2014-Jul-28 22:25N 35°02' E 138°30'0 0.0
2014-Jul-28 19:32N 35°02' E 138°30'0 0.1
2014-Jul-28 18:31N 35°02' E 138°31'2110.2
2014-Jul-28 16:28N 34°43' E 138°41'19 8.1
2014-Jul-28 14:05N 34°45' E 139°05'711.4
2014-Jul-28 13:30N 34°50' E 139°09'1111.0
2014-Jul-28 12:32N 34°57' E 139°19'1110.1
2014-Jul-28 11:27N 35°03' E 139°31'910.3
2014-Jul-28 10:33N 35°07' E 139°40'10 9.7
2014-Jul-28 09:33N 35°16' E 139°46'10 9.6
2014-Jul-28 08:33N 35°25' E 139°44'9 9.4
2014-Jul-28 07:33N 35°33' E 139°51'5 4.6
2014-Jul-28 06:33N 35°36' E 139°47'0 0.0
2014-Jul-28 05:33N 35°36' E 139°47'0 0.0
2014-Jul-28 04:33N 35°36' E 139°47'1 0.6
2014-Jul-28 03:33N 35°36' E 139°47'1 1.1
2014-Jul-28 02:33N 35°36' E 139°46'0 0.0
2014-Jul-28 01:33N 35°36' E 139°46'0 0.2
2014-Jul-28 00:33N 35°37' E 139°46'0 0.0
2014-Jul-27 23:33N 35°37' E 139°46'0 0.4
2014-Jul-27 22:33N 35°36' E 139°46'9 8.7
2014-Jul-27 21:33N 35°28' E 139°51'1010.3
2014-Jul-27 20:33N 35°19' E 139°44'1010.3
2014-Jul-27 19:33N 35°09' E 139°46'1211.5
2014-Jul-27 18:33N 34°58' E 139°43'12 9.5
2014-Jul-27 17:15N 34°52' E 139°56'6 8.4
2014-Jul-27 16:33N 34°55' E 140°02'8 8.1
2014-Jul-27 15:32N 34°59' E 140°10'8 8.0
2014-Jul-27 14:33N 35°04' E 140°19'8 7.3
2014-Jul-27 13:24N 35°08' E 140°27'6 7.4
2014-Jul-27 12:32N 35°13' E 140°32'10 9.7
2014-Jul-27 11:33N 35°21' E 140°39'1010.0
2014-Jul-27 10:33N 35°29' E 140°46'10 9.8
2014-Jul-27 09:33N 35°37' E 140°52'20 9.9
2014-Jul-27 07:32N 35°57' E 140°52'  
2014-Jul-25 00:27N 35°26' E 140°43'1010.4
2014-Jul-24 23:27N 35°18' E 140°36'1010.6
2014-Jul-24 22:31N 35°10' E 140°28'1111.0
2014-Jul-24 21:33N 35°03' E 140°18'1212.2
2014-Jul-24 20:33N 34°56' E 140°06'1311.1
2014-Jul-24 19:21N 34°51' E 139°51'911.2
2014-Jul-24 18:33N 34°58' E 139°43'1110.9
2014-Jul-24 17:33N 35°09' E 139°45'1010.3
2014-Jul-24 16:33N 35°19' E 139°43'10 9.5
2014-Jul-24 15:33N 35°28' E 139°48'8 8.4
2014-Jul-24 14:33N 35°36' E 139°47'1 1.2
2014-Jul-24 13:33N 35°37' E 139°46'3 3.2
2014-Jul-24 12:33N 35°34' E 139°48'7 7.1
2014-Jul-24 11:33N 35°28' E 139°46'4 4.3
2014-Jul-24 10:33N 35°26' E 139°41'1 0.6
2014-Jul-24 09:33N 35°27' E 139°41'4 4.2
2014-Jul-24 08:33N 35°29' E 139°45'0 0.0
2014-Jul-24 07:33N 35°29' E 139°45'0 0.0
2014-Jul-24 06:33N 35°29' E 139°45'0 0.0
2014-Jul-24 05:33N 35°29' E 139°45'0 0.0
2014-Jul-24 04:33N 35°29' E 139°45'0 0.0
2014-Jul-24 03:33N 35°29' E 139°45'9 8.7
2014-Jul-24 02:33N 35°21' E 139°44'1010.2
2014-Jul-24 01:33N 35°11' E 139°47'1010.3
2014-Jul-24 00:33N 35°02' E 139°39'1111.5
2014-Jul-23 23:33N 34°55' E 139°28'4711.8
2014-Jul-23 19:33N 34°33' E 138°37'  
2014-Jul-21 07:28N 34°43' E 139°04'2010.4
2014-Jul-21 05:31N 34°57' E 139°22'9 9.2
2014-Jul-21 04:33N 35°02' E 139°31'1110.9
2014-Jul-21 03:33N 35°08' E 139°42'1010.3
2014-Jul-21 02:33N 35°18' E 139°44'9 9.3
2014-Jul-21 01:33N 35°27' E 139°47'8 8.3
2014-Jul-21 00:33N 35°35' E 139°47'2 2.1
2014-Jul-20 23:33N 35°37' E 139°46'1 0.6
2014-Jul-20 22:33N 35°36' E 139°46'4 4.3
2014-Jul-20 21:33N 35°34' E 139°50'0 0.0
2014-Jul-20 20:33N 35°34' E 139°50'0 0.0
2014-Jul-20 19:33N 35°34' E 139°50'0 0.0
2014-Jul-20 18:33N 35°34' E 139°50'0 0.0
2014-Jul-20 17:33N 35°34' E 139°50'0 0.0
2014-Jul-20 16:33N 35°34' E 139°50'0 0.0
2014-Jul-20 15:33N 35°34' E 139°50'0 0.1
2014-Jul-20 14:33N 35°34' E 139°50'0 0.0
2014-Jul-20 13:33N 35°34' E 139°50'0 0.0
2014-Jul-20 12:30N 35°34' E 139°50'0 0.0
2014-Jul-20 11:33N 35°34' E 139°50'0 0.0
2014-Jul-20 10:33N 35°34' E 139°50'0 0.0
2014-Jul-20 09:33N 35°34' E 139°50'1 1.5
2014-Jul-20 08:33N 35°33' E 139°51'1010.0
2014-Jul-20 07:33N 35°24' E 139°46'9 9.0
2014-Jul-20 06:33N 35°15' E 139°47'1010.0
2014-Jul-20 05:33N 35°05' E 139°45'12 9.0
2014-Jul-20 04:14N 34°53' E 139°46'8 9.5
2014-Jul-20 03:21N 34°53' E 139°57'810.4
2014-Jul-20 02:33N 34°57' E 140°05'1110.1
2014-Jul-20 01:29N 35°03' E 140°16'1110.5
2014-Jul-20 00:29N 35°10' E 140°26'1110.9
2014-Jul-19 23:31N 35°18' E 140°34'1010.2
2014-Jul-19 22:33N 35°26' E 140°41'1110.6
2014-Jul-19 21:31N 35°34' E 140°50'1211.3
2014-Jul-19 20:27N 35°45' E 140°57'  
Track history (hours):
 
Tides and Currents Weather Stations Pressure Air Temp Water Temp Dewpoint Dewpoint Depression Visibility Wind Speed Wind Dir Waves Ship Positions

Otagawa

Last reported at 2014-Jul-28 23:29 UTC. Time now 2014-Jul-29 00:38 UTC.
Position N 35°02' E 138°30'.

Length 70 m; draft 4.6 m.

Type: Ship. MMSI: 431001328.

Date/timePositionNaut miles runAvg speedWind from/ knotsBaromVisibWave heightAir tempDewpointWater temp
2014-Jul-28 23:29N 35°02' E 138°30'0 0.0
2014-Jul-28 22:25N 35°02' E 138°30'0 0.0
2014-Jul-28 19:32N 35°02' E 138°30'0 0.1
2014-Jul-28 18:31N 35°02' E 138°31'2110.2
2014-Jul-28 16:28N 34°43' E 138°41'19 8.1
2014-Jul-28 14:05N 34°45' E 139°05'711.4
2014-Jul-28 13:30N 34°50' E 139°09'1111.0
2014-Jul-28 12:32N 34°57' E 139°19'1110.1
2014-Jul-28 11:27N 35°03' E 139°31'910.3
2014-Jul-28 10:33N 35°07' E 139°40'10 9.7
2014-Jul-28 09:33N 35°16' E 139°46'10 9.6
2014-Jul-28 08:33N 35°25' E 139°44'9 9.4
2014-Jul-28 07:33N 35°33' E 139°51'5 4.6
2014-Jul-28 06:33N 35°36' E 139°47'0 0.0
2014-Jul-28 05:33N 35°36' E 139°47'0 0.0
2014-Jul-28 04:33N 35°36' E 139°47'1 0.6
2014-Jul-28 03:33N 35°36' E 139°47'1 1.1
2014-Jul-28 02:33N 35°36' E 139°46'0 0.0
2014-Jul-28 01:33N 35°36' E 139°46'0 0.2
2014-Jul-28 00:33N 35°37' E 139°46'0 0.0
2014-Jul-27 23:33N 35°37' E 139°46'0 0.4
2014-Jul-27 22:33N 35°36' E 139°46'9 8.7
2014-Jul-27 21:33N 35°28' E 139°51'1010.3
2014-Jul-27 20:33N 35°19' E 139°44'1010.3
2014-Jul-27 19:33N 35°09' E 139°46'1211.5
2014-Jul-27 18:33N 34°58' E 139°43'12 9.5
2014-Jul-27 17:15N 34°52' E 139°56'6 8.4
2014-Jul-27 16:33N 34°55' E 140°02'8 8.1
2014-Jul-27 15:32N 34°59' E 140°10'8 8.0
2014-Jul-27 14:33N 35°04' E 140°19'8 7.3
2014-Jul-27 13:24N 35°08' E 140°27'6 7.4
2014-Jul-27 12:32N 35°13' E 140°32'10 9.7
2014-Jul-27 11:33N 35°21' E 140°39'1010.0
2014-Jul-27 10:33N 35°29' E 140°46'10 9.8
2014-Jul-27 09:33N 35°37' E 140°52'20 9.9
2014-Jul-27 07:32N 35°57' E 140°52'  
2014-Jul-25 00:27N 35°26' E 140°43'1010.4
2014-Jul-24 23:27N 35°18' E 140°36'1010.6
2014-Jul-24 22:31N 35°10' E 140°28'1111.0
2014-Jul-24 21:33N 35°03' E 140°18'1212.2
2014-Jul-24 20:33N 34°56' E 140°06'1311.1
2014-Jul-24 19:21N 34°51' E 139°51'911.2
2014-Jul-24 18:33N 34°58' E 139°43'1110.9
2014-Jul-24 17:33N 35°09' E 139°45'1010.3
2014-Jul-24 16:33N 35°19' E 139°43'10 9.5
2014-Jul-24 15:33N 35°28' E 139°48'8 8.4
2014-Jul-24 14:33N 35°36' E 139°47'1 1.2
2014-Jul-24 13:33N 35°37' E 139°46'3 3.2
2014-Jul-24 12:33N 35°34' E 139°48'7 7.1
2014-Jul-24 11:33N 35°28' E 139°46'4 4.3
2014-Jul-24 10:33N 35°26' E 139°41'1 0.6
2014-Jul-24 09:33N 35°27' E 139°41'4 4.2
2014-Jul-24 08:33N 35°29' E 139°45'0 0.0
2014-Jul-24 07:33N 35°29' E 139°45'0 0.0
2014-Jul-24 06:33N 35°29' E 139°45'0 0.0
2014-Jul-24 05:33N 35°29' E 139°45'0 0.0
2014-Jul-24 04:33N 35°29' E 139°45'0 0.0
2014-Jul-24 03:33N 35°29' E 139°45'9 8.7
2014-Jul-24 02:33N 35°21' E 139°44'1010.2
2014-Jul-24 01:33N 35°11' E 139°47'1010.3
2014-Jul-24 00:33N 35°02' E 139°39'1111.5
2014-Jul-23 23:33N 34°55' E 139°28'4711.8
2014-Jul-23 19:33N 34°33' E 138°37'  
2014-Jul-21 07:28N 34°43' E 139°04'2010.4
2014-Jul-21 05:31N 34°57' E 139°22'9 9.2
2014-Jul-21 04:33N 35°02' E 139°31'1110.9
2014-Jul-21 03:33N 35°08' E 139°42'1010.3
2014-Jul-21 02:33N 35°18' E 139°44'9 9.3
2014-Jul-21 01:33N 35°27' E 139°47'8 8.3
2014-Jul-21 00:33N 35°35' E 139°47'2 2.1
2014-Jul-20 23:33N 35°37' E 139°46'1 0.6
2014-Jul-20 22:33N 35°36' E 139°46'4 4.3
2014-Jul-20 21:33N 35°34' E 139°50'0 0.0
2014-Jul-20 20:33N 35°34' E 139°50'0 0.0
2014-Jul-20 19:33N 35°34' E 139°50'0 0.0
2014-Jul-20 18:33N 35°34' E 139°50'0 0.0
2014-Jul-20 17:33N 35°34' E 139°50'0 0.0
2014-Jul-20 16:33N 35°34' E 139°50'0 0.0
2014-Jul-20 15:33N 35°34' E 139°50'0 0.1
2014-Jul-20 14:33N 35°34' E 139°50'0 0.0
2014-Jul-20 13:33N 35°34' E 139°50'0 0.0
2014-Jul-20 12:30N 35°34' E 139°50'0 0.0
2014-Jul-20 11:33N 35°34' E 139°50'0 0.0
2014-Jul-20 10:33N 35°34' E 139°50'0 0.0
2014-Jul-20 09:33N 35°34' E 139°50'1 1.5
2014-Jul-20 08:33N 35°33' E 139°51'1010.0
2014-Jul-20 07:33N 35°24' E 139°46'9 9.0
2014-Jul-20 06:33N 35°15' E 139°47'1010.0
2014-Jul-20 05:33N 35°05' E 139°45'12 9.0
2014-Jul-20 04:14N 34°53' E 139°46'8 9.5
2014-Jul-20 03:21N 34°53' E 139°57'810.4
2014-Jul-20 02:33N 34°57' E 140°05'1110.1
2014-Jul-20 01:29N 35°03' E 140°16'1110.5
2014-Jul-20 00:29N 35°10' E 140°26'1110.9
2014-Jul-19 23:31N 35°18' E 140°34'1010.2
2014-Jul-19 22:33N 35°26' E 140°41'1110.6
2014-Jul-19 21:31N 35°34' E 140°50'1211.3
2014-Jul-19 20:27N 35°45' E 140°57'  

Dump ship's entire track history